Etihad Airways Virtual Airport Information Service

Dubai International Airport

ICAO: OMDB Country: United Arab Emirates
Latitude: 25.2528 Longitude: 55.3644
Latest Arrival : QTR1002 (1) (OTHH-OMDB) Latest Departure : ETDJUMP (OMDB-OMAA)


WX CaptureLIVE
Data provided by noaa.gov | Recorded at 03:05:46

METAR : OMDB 170200Z 17005KT 8000 NSC 31/26 Q1001 NOSIG

TAF : OMDB 162300Z 1700/1806 13005KT 8000 NSC PROB30 1701/1705 4000 HZ BECMG 1703/1705 19010KT BECMG 1707/1709 28012KT BECMG 1716/1718 14005KT PROB30 1800/1805 3000 BR BKN008


Runway Data for OMDB
Data provided by openaviationdata.com

Runway ID Mag Var Hdg Length Elevation Surface ILS Freq ILS Id ILS Slope

Dubai International Airport, United Arab Emirates
Use only for reference purposes